createdAt,value
2022-08-09T00:00:23.190Z,19.70
2022-08-09T00:02:53.411Z,19.70
2022-08-09T00:06:18.347Z,19.60
2022-08-09T00:08:12.873Z,19.60
2022-08-09T00:10:41.749Z,19.50
2022-08-09T00:13:16.959Z,19.50
2022-08-09T00:15:59.287Z,19.50
2022-08-09T00:18:34.888Z,19.50
2022-08-09T00:21:05.020Z,19.60
2022-08-09T00:23:54.571Z,19.40
2022-08-09T00:26:32.544Z,19.40
2022-08-09T00:29:01.740Z,19.20
2022-08-09T00:31:57.482Z,19.40
2022-08-09T00:34:20.117Z,19.20
2022-08-09T00:36:48.718Z,19.10
2022-08-09T00:40:12.323Z,19.10
2022-08-09T00:44:11.352Z,19.00
2022-08-09T00:44:53.753Z,18.90
2022-08-09T00:47:24.582Z,18.90
2022-08-09T00:49:56.594Z,18.80
2022-08-09T00:52:30.627Z,18.80
2022-08-09T00:55:00.157Z,18.70
2022-08-09T00:57:35.013Z,18.70
2022-08-09T01:00:20.690Z,18.60
2022-08-09T01:02:51.321Z,18.60
2022-08-09T01:05:51.814Z,18.50
2022-08-09T01:08:15.350Z,18.50
2022-08-09T01:10:51.173Z,18.50
2022-08-09T01:13:23.406Z,18.40
2022-08-09T01:16:00.455Z,18.40
2022-08-09T01:18:31.688Z,18.40
2022-08-09T01:21:10.056Z,18.30
2022-08-09T01:24:02.270Z,18.30
2022-08-09T01:26:46.256Z,18.20
2022-08-09T01:29:15.468Z,18.20
2022-08-09T01:32:29.572Z,18.20
2022-08-09T01:34:34.173Z,18.20
2022-08-09T01:37:03.193Z,18.20
2022-08-09T01:39:35.711Z,18.20
2022-08-09T01:42:11.099Z,18.10
2022-08-09T01:44:41.408Z,18.10
2022-08-09T01:47:11.550Z,18.10
2022-08-09T01:49:40.597Z,18.10
2022-08-09T01:52:17.591Z,18.00
2022-08-09T01:54:47.130Z,18.00
2022-08-09T01:57:18.726Z,18.00
2022-08-09T01:59:51.616Z,18.00
2022-08-09T02:02:21.781Z,18.00
2022-08-09T02:04:50.617Z,18.00
2022-08-09T02:08:40.229Z,17.90
2022-08-09T02:10:10.833Z,17.90
2022-08-09T02:12:40.788Z,17.90
2022-08-09T02:15:15.339Z,17.90
2022-08-09T02:18:01.498Z,17.90
2022-08-09T02:20:35.335Z,17.80
2022-08-09T02:23:06.220Z,17.80
2022-08-09T02:25:41.968Z,17.80
2022-08-09T02:28:17.946Z,17.80
2022-08-09T02:30:48.662Z,17.70
2022-08-09T02:33:22.958Z,17.60
2022-08-09T02:36:03.531Z,17.60
2022-08-09T02:38:34.766Z,17.50
2022-08-09T02:41:07.622Z,17.40
2022-08-09T02:43:53.685Z,17.30
2022-08-09T02:46:24.087Z,17.30
2022-08-09T02:48:52.708Z,17.20
2022-08-09T02:51:22.979Z,17.20
2022-08-09T02:54:00.934Z,17.20
2022-08-09T02:56:31.656Z,17.10
2022-08-09T02:59:03.283Z,17.10
2022-08-09T03:01:43.064Z,17.10
2022-08-09T03:04:21.734Z,17.00
2022-08-09T03:06:57.370Z,17.10
2022-08-09T03:09:33.712Z,17.10
2022-08-09T03:12:05.591Z,17.10
2022-08-09T03:14:36.995Z,17.00
2022-08-09T03:17:05.681Z,17.00
2022-08-09T03:19:57.744Z,17.00
2022-08-09T03:22:41.500Z,16.90
2022-08-09T03:25:26.226Z,16.90
2022-08-09T03:28:01.075Z,16.90
2022-08-09T03:30:33.677Z,16.90
2022-08-09T03:33:17.308Z,16.90
2022-08-09T03:36:15.685Z,16.90
2022-08-09T03:38:35.467Z,16.80
2022-08-09T03:41:09.801Z,16.80
2022-08-09T03:43:43.012Z,16.80
2022-08-09T03:46:32.514Z,16.70
2022-08-09T03:49:04.212Z,16.70
2022-08-09T03:51:55.247Z,16.70
2022-08-09T03:54:29.559Z,16.70
2022-08-09T03:56:58.426Z,16.70
2022-08-09T03:59:52.728Z,16.70
2022-08-09T04:02:19.776Z,16.70
2022-08-09T04:04:55.359Z,16.70
2022-08-09T04:07:23.659Z,16.70
2022-08-09T04:10:11.715Z,16.70
2022-08-09T04:12:45.160Z,16.70
2022-08-09T04:15:29.646Z,16.70
2022-08-09T04:18:03.298Z,16.60
2022-08-09T04:20:31.291Z,16.60
2022-08-09T04:23:01.906Z,16.60
2022-08-09T04:25:30.445Z,16.60
2022-08-09T04:28:02.367Z,16.60
2022-08-09T04:30:32.245Z,16.60
2022-08-09T04:33:02.042Z,16.50
2022-08-09T04:35:32.842Z,16.50
2022-08-09T04:38:03.509Z,16.50
2022-08-09T04:40:45.791Z,16.50
2022-08-09T04:43:14.227Z,16.50
2022-08-09T04:45:53.855Z,16.50
2022-08-09T04:48:23.965Z,16.50
2022-08-09T04:51:02.739Z,16.50
2022-08-09T04:53:31.545Z,16.50
2022-08-09T04:56:00.141Z,16.50
2022-08-09T04:58:29.045Z,16.60
2022-08-09T05:00:59.987Z,16.50
2022-08-09T05:03:39.975Z,16.60
2022-08-09T05:06:22.128Z,16.60
2022-08-09T05:09:00.799Z,16.60
2022-08-09T05:11:32.352Z,16.70
2022-08-09T05:14:05.757Z,16.70
2022-08-09T05:16:58.281Z,16.80
2022-08-09T05:19:25.739Z,16.80
2022-08-09T05:21:56.563Z,16.90
2022-08-09T05:24:24.832Z,17.00
2022-08-09T05:26:53.206Z,17.00
2022-08-09T05:29:24.186Z,17.10
2022-08-09T05:31:57.311Z,17.20
2022-08-09T05:34:30.970Z,17.30
2022-08-09T05:37:06.448Z,17.40
2022-08-09T05:39:36.392Z,17.50
2022-08-09T05:42:20.660Z,17.60
2022-08-09T05:44:51.495Z,17.70
2022-08-09T05:47:21.746Z,17.80
2022-08-09T05:50:26.836Z,17.90
2022-08-09T05:52:42.067Z,18.20
2022-08-09T05:55:20.489Z,19.10
2022-08-09T05:57:55.631Z,20.00
2022-08-09T06:00:26.195Z,20.80
2022-08-09T06:02:56.695Z,21.40
2022-08-09T06:05:50.230Z,22.00
2022-08-09T06:08:19.355Z,22.40
2022-08-09T06:10:52.006Z,22.70
2022-08-09T06:13:20.641Z,22.80
2022-08-09T06:15:51.047Z,23.10
2022-08-09T06:18:23.849Z,23.40
2022-08-09T06:20:54.542Z,23.70
2022-08-09T06:23:55.158Z,23.70
2022-08-09T06:26:20.200Z,23.70
2022-08-09T06:28:49.989Z,24.00
2022-08-09T06:31:30.458Z,24.30
2022-08-09T06:33:59.813Z,24.70
2022-08-09T06:36:29.997Z,24.80
2022-08-09T06:38:59.556Z,24.80
2022-08-09T06:41:58.893Z,24.70
2022-08-09T06:44:19.397Z,25.00
2022-08-09T06:46:55.244Z,25.40
2022-08-09T06:49:44.884Z,26.20
2022-08-09T06:52:12.176Z,27.00
2022-08-09T06:54:45.587Z,28.20
2022-08-09T06:57:14.180Z,29.10
2022-08-09T07:00:49.732Z,29.60
2022-08-09T07:02:31.704Z,29.80
2022-08-09T07:05:00.395Z,30.40
2022-08-09T07:07:59.705Z,31.20
2022-08-09T07:10:29.988Z,31.60
2022-08-09T07:13:00.239Z,32.10
2022-08-09T07:16:38.399Z,32.40
2022-08-09T07:18:35.008Z,32.60
2022-08-09T07:21:08.007Z,32.40
2022-08-09T07:23:36.489Z,32.80
2022-08-09T07:26:26.065Z,32.30
2022-08-09T07:29:01.227Z,32.60
2022-08-09T07:31:38.606Z,32.80
2022-08-09T07:34:20.238Z,33.60
2022-08-09T07:36:49.387Z,34.10
2022-08-09T07:39:19.776Z,34.70
2022-08-09T07:41:50.271Z,35.30
2022-08-09T07:44:18.987Z,35.00
2022-08-09T07:46:58.370Z,35.30
2022-08-09T07:49:26.796Z,35.80
2022-08-09T07:52:03.381Z,36.20
2022-08-09T07:54:34.418Z,36.60
2022-08-09T07:57:03.870Z,36.80
2022-08-09T07:59:51.061Z,37.10
2022-08-09T08:02:27.881Z,37.40
2022-08-09T08:04:56.092Z,37.60
2022-08-09T08:08:42.406Z,37.80
2022-08-09T08:10:12.468Z,37.70
2022-08-09T08:12:45.026Z,37.90
2022-08-09T08:15:16.877Z,38.30
2022-08-09T08:17:53.722Z,38.30
2022-08-09T08:20:28.780Z,38.50
2022-08-09T08:22:58.761Z,38.10
2022-08-09T08:25:44.338Z,38.40
2022-08-09T08:28:18.040Z,38.50
2022-08-09T08:30:53.963Z,38.70
2022-08-09T08:33:24.203Z,38.60
2022-08-09T08:35:59.509Z,38.70
2022-08-09T08:38:28.862Z,38.70
2022-08-09T08:40:57.285Z,39.00
2022-08-09T08:43:27.920Z,38.90
2022-08-09T08:46:03.895Z,38.90
2022-08-09T08:48:51.505Z,38.70
2022-08-09T08:51:22.587Z,38.70
2022-08-09T08:54:03.530Z,38.90
2022-08-09T08:56:34.479Z,39.00
2022-08-09T08:59:07.757Z,38.70
2022-08-09T09:01:52.701Z,38.60
2022-08-09T09:04:26.946Z,38.40
2022-08-09T09:06:57.685Z,38.50
2022-08-09T09:09:58.668Z,38.50
2022-08-09T09:12:16.721Z,38.70
2022-08-09T09:14:46.981Z,38.70
2022-08-09T09:17:16.474Z,38.80
2022-08-09T09:19:45.206Z,38.50
2022-08-09T09:22:15.905Z,38.70
2022-08-09T09:24:44.918Z,38.90
2022-08-09T09:28:02.859Z,39.40
2022-08-09T09:30:19.300Z,39.30
2022-08-09T09:33:02.755Z,39.50
2022-08-09T09:36:00.523Z,39.70
2022-08-09T09:38:41.066Z,39.90
2022-08-09T09:41:11.185Z,40.10
2022-08-09T09:43:41.652Z,40.40
2022-08-09T09:46:52.041Z,40.60
2022-08-09T09:49:32.138Z,40.70
2022-08-09T09:52:33.662Z,41.10
2022-08-09T09:55:02.652Z,41.30
2022-08-09T09:58:01.657Z,41.30
2022-08-09T10:00:33.794Z,41.60
2022-08-09T10:03:11.929Z,41.10
2022-08-09T10:06:03.832Z,41.40
2022-08-09T10:08:33.070Z,41.10
2022-08-09T10:11:54.315Z,41.30
2022-08-09T10:14:08.069Z,41.20
2022-08-09T10:16:57.723Z,41.50
2022-08-09T10:19:37.423Z,41.40
2022-08-09T10:22:07.028Z,41.70
2022-08-09T10:24:36.371Z,41.40
2022-08-09T10:27:10.110Z,41.10
2022-08-09T10:30:41.808Z,40.50
2022-08-09T10:32:42.693Z,40.50
2022-08-09T10:35:13.348Z,40.40
2022-08-09T10:37:42.074Z,40.60
2022-08-09T10:40:12.180Z,40.10
2022-08-09T10:42:58.656Z,40.10
2022-08-09T10:45:31.891Z,39.70
2022-08-09T10:48:25.936Z,39.80
2022-08-09T10:51:14.626Z,40.10
2022-08-09T10:53:46.868Z,40.50
2022-08-09T10:56:23.863Z,40.70
2022-08-09T10:58:54.042Z,41.30
2022-08-09T11:03:16.321Z,41.40
2022-08-09T11:04:32.062Z,41.60
2022-08-09T11:07:19.291Z,41.70
2022-08-09T11:09:52.621Z,41.70
2022-08-09T11:12:21.659Z,41.60
2022-08-09T11:14:58.225Z,41.80
2022-08-09T11:17:56.937Z,41.90
2022-08-09T11:20:43.304Z,42.00
2022-08-09T11:23:11.810Z,41.90
2022-08-09T11:25:49.972Z,42.00
2022-08-09T11:28:34.385Z,42.20
2022-08-09T11:31:03.886Z,42.20
2022-08-09T11:33:44.354Z,41.90
2022-08-09T11:36:30.334Z,41.50
2022-08-09T11:39:04.960Z,41.70
2022-08-09T11:41:38.296Z,41.70
2022-08-09T11:44:08.690Z,41.60
2022-08-09T11:46:52.937Z,41.70
2022-08-09T11:49:42.907Z,41.90
2022-08-09T11:53:06.295Z,41.90
2022-08-09T11:55:39.965Z,41.80
2022-08-09T11:58:36.474Z,41.60
2022-08-09T12:01:08.880Z,41.70
2022-08-09T12:03:57.124Z,41.30
2022-08-09T12:06:32.920Z,41.10
2022-08-09T12:09:04.910Z,40.80
2022-08-09T12:11:44.581Z,40.80
2022-08-09T12:14:37.070Z,40.30
2022-08-09T12:17:34.237Z,40.60
2022-08-09T12:20:12.426Z,40.80
2022-08-09T12:22:44.945Z,41.00
2022-08-09T12:25:14.880Z,41.20
2022-08-09T12:29:11.080Z,41.20
2022-08-09T12:30:36.854Z,41.40
2022-08-09T12:33:08.792Z,41.20
2022-08-09T12:35:40.939Z,40.80
2022-08-09T12:38:29.508Z,40.60
2022-08-09T12:41:07.197Z,40.40
2022-08-09T12:44:05.674Z,39.90
2022-08-09T12:46:24.858Z,39.90
2022-08-09T12:48:55.126Z,39.90
2022-08-09T12:51:52.524Z,40.00
2022-08-09T12:54:11.526Z,40.20
2022-08-09T12:56:53.789Z,40.30
2022-08-09T12:59:22.627Z,40.40
2022-08-09T13:02:02.233Z,40.40
2022-08-09T13:04:37.620Z,40.50
2022-08-09T13:07:13.853Z,40.60
2022-08-09T13:09:45.434Z,40.50
2022-08-09T13:12:23.458Z,40.40
2022-08-09T13:14:54.309Z,40.50
2022-08-09T13:18:02.683Z,40.30
2022-08-09T13:20:18.710Z,40.30
2022-08-09T13:23:00.946Z,40.20
2022-08-09T13:25:42.094Z,40.40
2022-08-09T13:28:11.041Z,40.30
2022-08-09T13:30:51.016Z,40.40
2022-08-09T13:33:53.109Z,40.50
2022-08-09T13:36:42.445Z,40.40
2022-08-09T13:41:51.430Z,40.40
2022-08-09T13:42:04.194Z,40.50
2022-08-09T13:44:32.769Z,40.40
2022-08-09T13:47:26.650Z,40.30
2022-08-09T13:49:57.521Z,40.20
2022-08-09T13:52:30.812Z,40.30
2022-08-09T13:55:02.199Z,40.10
2022-08-09T13:57:35.723Z,39.90
2022-08-09T14:00:08.845Z,39.60
2022-08-09T14:02:42.924Z,39.30
2022-08-09T14:05:57.321Z,38.90
2022-08-09T14:08:15.919Z,38.30
2022-08-09T14:10:50.480Z,37.60
2022-08-09T14:14:15.970Z,37.00
2022-08-09T14:16:13.834Z,36.40
2022-08-09T14:18:45.678Z,35.70
2022-08-09T14:21:22.614Z,35.30
2022-08-09T14:23:56.567Z,35.00
2022-08-09T14:26:32.207Z,34.60
2022-08-09T14:29:01.760Z,34.40
2022-08-09T14:31:49.862Z,34.20
2022-08-09T14:34:27.450Z,34.00
2022-08-09T14:37:00.431Z,33.80
2022-08-09T14:39:45.090Z,33.60
2022-08-09T14:42:28.886Z,33.30
2022-08-09T14:45:01.605Z,33.10
2022-08-09T14:47:57.067Z,33.00
2022-08-09T14:50:27.267Z,32.80
2022-08-09T14:52:55.335Z,32.80
2022-08-09T14:55:24.741Z,32.80
2022-08-09T14:57:52.977Z,32.70
2022-08-09T15:00:23.122Z,32.50
2022-08-09T15:02:52.206Z,32.50
2022-08-09T15:05:20.363Z,32.40
2022-08-09T15:07:56.259Z,32.50
2022-08-09T15:10:26.255Z,32.40
2022-08-09T15:12:54.494Z,32.30
2022-08-09T15:15:22.584Z,32.30
2022-08-09T15:17:52.854Z,32.30
2022-08-09T15:21:55.259Z,32.30
2022-08-09T15:24:02.246Z,32.30
2022-08-09T15:25:59.356Z,32.10
2022-08-09T15:28:28.749Z,31.90
2022-08-09T15:31:10.012Z,31.90
2022-08-09T15:34:33.532Z,31.80
2022-08-09T15:36:31.254Z,31.70
2022-08-09T15:38:59.838Z,31.50
2022-08-09T15:41:31.020Z,31.40
2022-08-09T15:44:00.579Z,31.40
2022-08-09T15:46:32.884Z,31.30
2022-08-09T15:49:20.432Z,31.20
2022-08-09T15:52:03.423Z,31.20
2022-08-09T15:54:44.215Z,31.10
2022-08-09T15:57:18.897Z,31.00
2022-08-09T15:59:52.548Z,30.90
2022-08-09T16:02:27.185Z,30.90
2022-08-09T16:04:55.549Z,30.80
2022-08-09T16:07:25.736Z,30.70
2022-08-09T16:10:04.345Z,30.70
2022-08-09T16:12:34.587Z,30.70
2022-08-09T16:15:04.939Z,30.60
2022-08-09T16:17:52.992Z,30.60
2022-08-09T16:20:21.021Z,30.60
2022-08-09T16:22:58.357Z,30.60
2022-08-09T16:25:39.930Z,30.50
2022-08-09T16:28:12.165Z,30.40
2022-08-09T16:30:44.620Z,30.30
2022-08-09T16:33:15.695Z,30.30
2022-08-09T16:35:56.100Z,30.20
2022-08-09T16:38:26.702Z,30.10
2022-08-09T16:40:55.538Z,30.00
2022-08-09T16:43:26.507Z,30.00
2022-08-09T16:45:54.866Z,30.00
2022-08-09T16:48:41.894Z,29.90
2022-08-09T16:51:14.393Z,29.80
2022-08-09T16:54:09.106Z,29.80
2022-08-09T16:56:31.478Z,29.70
2022-08-09T16:59:06.728Z,29.50
2022-08-09T17:01:38.960Z,29.50
2022-08-09T17:04:09.593Z,29.40
2022-08-09T17:08:41.504Z,29.30
2022-08-09T17:09:45.655Z,29.20
2022-08-09T17:12:14.773Z,29.10
2022-08-09T17:14:47.930Z,29.00
2022-08-09T17:17:26.115Z,28.90
2022-08-09T17:20:32.767Z,28.90
2022-08-09T17:22:49.811Z,28.80
2022-08-09T17:25:18.727Z,28.60
2022-08-09T17:27:49.507Z,28.50
2022-08-09T17:30:25.809Z,28.40
2022-08-09T17:32:54.988Z,28.30
2022-08-09T17:35:25.845Z,28.20
2022-08-09T17:38:02.714Z,28.20
2022-08-09T17:40:47.376Z,28.20
2022-08-09T17:43:34.044Z,28.20
2022-08-09T17:46:08.725Z,28.10
2022-08-09T17:48:39.702Z,28.00
2022-08-09T17:51:17.211Z,27.90
2022-08-09T17:53:51.998Z,27.80
2022-08-09T17:56:27.251Z,27.80
2022-08-09T17:59:01.127Z,27.70
2022-08-09T18:01:58.163Z,27.60
2022-08-09T18:04:20.891Z,27.50
2022-08-09T18:06:54.169Z,27.50
2022-08-09T18:09:25.256Z,27.50
2022-08-09T18:12:15.092Z,27.30
2022-08-09T18:14:49.951Z,27.30
2022-08-09T18:18:02.753Z,27.20
2022-08-09T18:20:57.100Z,27.10
2022-08-09T18:22:59.880Z,27.00
2022-08-09T18:25:52.554Z,26.90
2022-08-09T18:30:36.153Z,26.80
2022-08-09T18:31:09.880Z,26.70
2022-08-09T18:33:40.374Z,26.60
2022-08-09T18:36:09.016Z,26.50
2022-08-09T18:38:57.307Z,26.30
2022-08-09T18:41:29.242Z,26.20
2022-08-09T18:44:02.999Z,26.10
2022-08-09T18:46:46.176Z,26.00
2022-08-09T18:49:21.093Z,26.00
2022-08-09T18:51:55.117Z,25.90
2022-08-09T18:54:28.702Z,25.80
2022-08-09T18:57:05.218Z,25.70
2022-08-09T18:59:37.318Z,25.70
2022-08-09T19:02:19.357Z,25.60
2022-08-09T19:05:03.727Z,25.60
2022-08-09T19:07:37.074Z,25.50
2022-08-09T19:10:14.867Z,25.50
2022-08-09T19:12:51.346Z,25.50
2022-08-09T19:15:33.760Z,25.40
2022-08-09T19:18:02.151Z,25.40
2022-08-09T19:20:38.860Z,25.30
2022-08-09T19:23:07.630Z,25.30
2022-08-09T19:26:01.639Z,25.30
2022-08-09T19:28:28.902Z,25.30
2022-08-09T19:30:57.289Z,25.20
2022-08-09T19:33:25.281Z,25.20
2022-08-09T19:35:57.150Z,25.20
2022-08-09T19:38:27.516Z,25.20
2022-08-09T19:40:57.583Z,25.20
2022-08-09T19:44:01.917Z,25.10
2022-08-09T19:46:16.132Z,25.10
2022-08-09T19:49:02.003Z,25.00
2022-08-09T19:51:33.648Z,25.00
2022-08-09T19:54:07.482Z,25.00
2022-08-09T19:56:44.748Z,24.90
2022-08-09T19:59:39.439Z,24.90
2022-08-09T20:02:05.456Z,24.80
2022-08-09T20:04:47.883Z,24.80
2022-08-09T20:07:25.803Z,24.70
2022-08-09T20:10:17.813Z,24.70
2022-08-09T20:12:51.903Z,24.60
2022-08-09T20:16:34.643Z,24.60
2022-08-09T20:18:10.186Z,24.60
2022-08-09T20:20:40.403Z,24.50
2022-08-09T20:23:10.846Z,24.50
2022-08-09T20:25:52.163Z,24.50
2022-08-09T20:28:24.274Z,24.40
2022-08-09T20:30:56.347Z,24.40
2022-08-09T20:33:25.647Z,24.40
2022-08-09T20:35:54.379Z,24.40
2022-08-09T20:38:33.926Z,24.30
2022-08-09T20:41:13.382Z,24.20
2022-08-09T20:43:44.687Z,24.10
2022-08-09T20:46:33.371Z,24.00
2022-08-09T20:49:02.412Z,24.00
2022-08-09T20:51:30.393Z,23.90
2022-08-09T20:54:16.811Z,23.80
2022-08-09T20:56:46.742Z,23.80
2022-08-09T20:59:17.185Z,23.70
2022-08-09T21:01:50.444Z,23.70
2022-08-09T21:05:51.484Z,23.60
2022-08-09T21:07:13.160Z,23.60
2022-08-09T21:09:45.634Z,23.50
2022-08-09T21:14:48.395Z,23.30
2022-08-09T21:18:21.741Z,23.20
2022-08-09T21:20:22.750Z,23.20
2022-08-09T21:22:54.957Z,23.10
2022-08-09T21:25:44.452Z,23.00
2022-08-09T21:28:34.912Z,22.90
2022-08-09T21:31:17.369Z,22.80
2022-08-09T21:33:50.768Z,22.70
2022-08-09T21:36:25.944Z,22.70
2022-08-09T21:38:57.602Z,22.60
2022-08-09T21:42:04.080Z,22.50
2022-08-09T21:44:32.827Z,22.40
2022-08-09T21:47:03.651Z,22.20
2022-08-09T21:49:39.613Z,22.20
2022-08-09T21:52:15.100Z,22.10
2022-08-09T21:54:53.685Z,22.00
2022-08-09T21:57:38.465Z,21.90
2022-08-09T22:00:26.252Z,21.80
2022-08-09T22:02:58.759Z,21.60
2022-08-09T22:05:35.886Z,21.70
2022-08-09T22:08:13.242Z,21.60
2022-08-09T22:11:50.196Z,21.50
2022-08-09T22:13:34.806Z,21.50
2022-08-09T22:16:07.582Z,21.50
2022-08-09T22:18:37.077Z,21.50
2022-08-09T22:21:10.018Z,21.50
2022-08-09T22:23:59.356Z,21.50
2022-08-09T22:26:34.906Z,21.50
2022-08-09T22:29:09.391Z,21.40
2022-08-09T22:31:44.672Z,21.40
2022-08-09T22:34:26.324Z,21.40
2022-08-09T22:36:54.736Z,21.30
2022-08-09T22:39:55.677Z,21.30
2022-08-09T22:42:20.617Z,21.20
2022-08-09T22:48:04.654Z,21.20
2022-08-09T22:48:15.364Z,21.10
2022-08-09T22:50:28.410Z,21.00
2022-08-09T22:52:58.394Z,21.00
2022-08-09T22:55:39.329Z,20.90
2022-08-09T22:58:20.197Z,20.90
2022-08-09T23:01:02.541Z,20.90
2022-08-09T23:04:05.809Z,20.70
2022-08-09T23:06:35.461Z,20.80
2022-08-09T23:09:04.463Z,20.80
2022-08-09T23:11:32.497Z,20.70
2022-08-09T23:14:00.486Z,20.60
2022-08-09T23:16:29.912Z,20.60
2022-08-09T23:18:57.904Z,20.60
2022-08-09T23:21:31.330Z,20.50
2022-08-09T23:24:05.947Z,20.50
2022-08-09T23:26:35.244Z,20.50
2022-08-09T23:29:03.266Z,20.40
2022-08-09T23:31:32.672Z,20.40
2022-08-09T23:34:00.688Z,20.30
2022-08-09T23:36:30.774Z,20.30
2022-08-09T23:38:58.906Z,20.40
2022-08-09T23:41:27.757Z,20.20
2022-08-09T23:43:57.385Z,20.20
2022-08-09T23:46:25.438Z,20.10
2022-08-09T23:48:54.833Z,20.00
2022-08-09T23:51:22.855Z,20.10
2022-08-09T23:53:52.598Z,20.10
2022-08-09T23:56:52.451Z,20.10
2022-08-09T23:59:11.687Z,20.10
